• Join FlightAware (Why Join?)
  • Login
  • US Flag 
03:06PM EDT


 

Airport Tracker/Info


-or-


 

Live Flight TrackerFlight Track Log ✈ EVA191 ✈ 24-Apr-2013 ✈ RJTT / HND - RCSS / TSA

Flight Track Log - Related Links

Times and Time Zones

All times are in EDT time to prevent confusion due to time zone crossing. See the EVA191 flight status page for this flight to view local times or setup timezone preferences in your user account.

Time Position Orientation Groundspeed Altitude Reporting Facility
EDT Latitude Longitude Course Direction KTS MPH feet Rate Location/Type
12:01AM 35.5280 139.7940 154° Southeast 140 161 1,500  Level FlightAware
12:01AM 35.5140 139.8030 152° Southeast 114 131 2,600 1,920 Climbing FlightAware
12:02AM 35.4990 139.8110 157° South 129 148 3,300 1,200 Climbing FlightAware
12:02AM 35.4830 139.8210 153° Southeast 163 188 3,700 1,080 Climbing FlightAware
12:03AM 35.4590 139.8180 186° South 189 217 4,300 1,680 Climbing FlightAware
12:03AM 35.4320 139.8040 203° Southwest 227 261 5,400 2,400 Climbing FlightAware
12:03AM 35.4090 139.7920 203° Southwest 239 275 6,500 3,420 Climbing FlightAware
12:04AM 35.3870 139.7820 200° South 229 264 8,000 3,600 Climbing FlightAware
12:04AM 35.3600 139.7680 203° Southwest 230 265 9,500 2,160 Climbing FlightAware
12:05AM 35.3110 139.7420 203° Southwest 268 308 10,700 2,280 Climbing FlightAware
12:08AM 35.1938 139.4753 242° Southwest  Level Estimated
12:08AM 35.2390 139.4720 242° Southwest 323 372 17,600  Level FlightAware
12:09AM 35.2150 139.3430 257° West 344 396 20,200 2,160 Climbing FlightAware
12:10AM 35.1880 139.1930 258° West 365 420 22,900 2,100 Climbing FlightAware
12:11AM 35.1710 139.1050 257° West 368 423 24,500 2,040 Climbing FlightAware
12:12AM 35.1540 139.0160 257° West 374 430 25,800 1,740 Climbing FlightAware
12:13AM 35.1340 138.9070 257° West 381 438 27,300 1,560 Climbing FlightAware
12:13AM 35.1200 138.8330 257° West 384 442 28,200 1,620 Climbing FlightAware
12:14AM 35.0980 138.7210 257° West 388 447 29,600 1,620 Climbing FlightAware
12:15AM 35.0800 138.6240 257° West 388 447 30,800 1,440 Climbing FlightAware
12:15AM 35.0630 138.5370 257° West 389 448 31,700 1,320 Climbing FlightAware
12:16AM 35.0450 138.4410 257° West 391 450 32,700 1,080 Climbing FlightAware
12:17AM 35.0280 138.3530 257° West 396 456 33,300 900 Climbing FlightAware
12:17AM 35.0110 138.2700 256° West 401 461 33,900 1,860 Climbing FlightAware
12:18AM 34.9920 138.1700 257° West 370 426 36,000 3,000 Climbing FlightAware
12:19AM 34.9800 138.1080 257° West 333 383 37,900 1,200 Climbing FlightAware
12:20AM 34.9500 137.9550 257° West 340 391 38,500 480 Climbing FlightAware
12:21AM 34.9310 137.8620 256° West 339 390 39,100 780 Climbing FlightAware
12:22AM 34.9110 137.7630 256° West 328 377 39,800 480 Climbing FlightAware
12:23AM 34.8970 137.6880 257° West 336 387 39,900 120 Climbing FlightAware
12:23AM 34.8820 137.6140 256° West 341 392 40,000 60 Climbing FlightAware
12:24AM 34.8600 137.5280 253° West 351 404 40,000  Level FlightAware
12:24AM 34.8380 137.4800 241° Southwest 359 413 40,000  Level FlightAware
12:25AM 34.7900 137.4030 233° Southwest 365 420 40,000  Level FlightAware
12:26AM 34.7500 137.3380 233° Southwest 371 427 40,000  Level FlightAware
12:27AM 34.7100 137.2740 233° Southwest 374 430 40,000  Level FlightAware
12:27AM 34.6630 137.1990 233° Southwest 373 429 40,000  Level FlightAware
12:28AM 34.6250 137.1380 233° Southwest 371 427 40,000  Level FlightAware
12:29AM 34.5770 137.0610 233° Southwest 369 425 40,000  Level FlightAware
12:29AM 34.5350 136.9950 232° Southwest 373 429 40,000  Level FlightAware
12:30AM 34.4930 136.9260 234° Southwest 374 430 40,000  Level FlightAware
12:31AM 34.4520 136.8610 233° Southwest 374 430 40,000  Level FlightAware
12:32AM 34.3980 136.7770 232° Southwest 375 432 40,000  Level FlightAware
12:32AM 34.3580 136.7120 233° Southwest 373 429 40,000  Level FlightAware
12:33AM 34.3160 136.6460 232° Southwest 371 427 40,000  Level FlightAware
12:34AM 34.2680 136.5700 233° Southwest 368 423 40,000  Level FlightAware
12:34AM 34.2270 136.5060 232° Southwest 361 415 40,000  Level FlightAware
12:35AM 34.1820 136.4350 233° Southwest 359 413 40,000  Level FlightAware
12:36AM 34.1400 136.3680 233° Southwest 356 410 40,000  Level FlightAware
12:36AM 34.1030 136.3100 232° Southwest 359 413 40,000  Level FlightAware
12:37AM 34.0640 136.2270 240° Southwest 358 412 40,000  Level FlightAware
12:38AM 34.0290 136.1560 239° Southwest 359 413 40,000  Level FlightAware
12:38AM 33.9940 136.0860 239° Southwest 357 411 40,000  Level FlightAware
12:39AM 33.9560 136.0090 239° Southwest 356 410 40,000  Level FlightAware
12:40AM 33.9240 135.9420 240° Southwest 356 410 40,000  Level FlightAware
12:41AM 33.8890 135.8720 239° Southwest 356 410 40,000  Level FlightAware
12:41AM 33.8520 135.7980 239° Southwest 355 409 40,000  Level FlightAware
12:42AM 33.8120 135.7150 240° Southwest 357 411 40,000  Level FlightAware
12:43AM 33.7810 135.6540 239° Southwest 360 414 40,000  Level FlightAware
12:43AM 33.7480 135.5880 239° Southwest 358 412 40,000  Level FlightAware
12:44AM 33.7030 135.4980 239° Southwest 359 413 40,000  Level FlightAware
12:45AM 33.6690 135.4290 239° Southwest 355 409 40,000  Level FlightAware
12:45AM 33.6350 135.3610 239° Southwest 353 406 40,000  Level FlightAware
12:46AM 33.5970 135.2860 239° Southwest 349 402 40,000  Level FlightAware
12:47AM 33.5650 135.2180 241° Southwest 344 396 40,000  Level FlightAware
12:48AM 33.5380 135.1490 245° Southwest 344 396 40,000  Level FlightAware
12:48AM 33.5070 135.0720 244° Southwest 346 398 40,000  Level FlightAware
12:49AM 33.4800 135.0030 245° Southwest 346 398 40,000  Level FlightAware
12:50AM 33.4490 134.9250 245° Southwest 347 399 40,000  Level FlightAware
12:50AM 33.4230 134.8580 245° Southwest 348 400 40,000  Level FlightAware
12:51AM 33.3940 134.7870 244° Southwest 343 395 40,000  Level FlightAware
12:52AM 33.3640 134.7110 245° Southwest 338 389 40,000 300 Level FlightAware
12:52AM 33.3380 134.6460 244° Southwest 332 382 40,500 420 Climbing FlightAware
12:53AM 33.3090 134.5770 243° Southwest 336 387 40,600 60 Climbing FlightAware
12:54AM 33.2790 134.5030 244° Southwest 343 395 40,600 240 Level FlightAware
12:55AM 33.2510 134.4350 244° Southwest 338 389 41,000 240 Climbing FlightAware
12:55AM 33.2190 134.3570 244° Southwest 339 390 41,000  Level FlightAware
12:56AM 33.1920 134.2920 244° Southwest 341 392 41,000  Level FlightAware
12:57AM 33.1600 134.2160 243° Southwest 342 394 41,000  Level FlightAware
12:57AM 33.1330 134.1490 244° Southwest 342 394 41,000  Level FlightAware
12:58AM 33.1040 134.0790 244° Southwest 344 396 41,000  Level FlightAware
12:59AM 33.0720 134.0050 243° Southwest 345 397 41,000  Level FlightAware
12:59AM 33.0440 133.9360 244° Southwest 345 397 41,000  Level FlightAware
01:00AM 33.0120 133.8600 243° Southwest 339 390 41,000  Level FlightAware
01:01AM 32.9840 133.7930 244° Southwest 335 386 41,000  Level FlightAware
01:02AM 32.9540 133.7210 244° Southwest 322 371 41,000  Level FlightAware
01:02AM 32.9270 133.6580 243° Southwest 314 361 41,000  Level FlightAware
01:03AM 32.9050 133.6070 243° Southwest 319 367 41,000  Level FlightAware
01:04AM 32.8720 133.5260 244° Southwest 323 372 41,000  Level FlightAware
01:04AM 32.8540 133.4850 242° Southwest 324 373 41,000  Level FlightAware
01:05AM 32.8230 133.4120 243° Southwest 326 375 41,000  Level FlightAware
01:06AM 32.7870 133.3260 244° Southwest 324 373 41,000  Level FlightAware
01:06AM 32.7650 133.2740 243° Southwest 324 373 41,000  Level FlightAware
01:07AM 32.7320 133.1990 242° Southwest 320 368 41,000  Level FlightAware
01:08AM 32.7020 133.1280 243° Southwest 320 368 41,000  Level FlightAware
01:08AM 32.6840 133.0850 244° Southwest 322 371 41,000  Level FlightAware
01:09AM 32.6530 133.0120 243° Southwest 328 377 41,000  Level FlightAware
01:10AM 32.6170 132.9290 243° Southwest 332 382 41,000  Level FlightAware
01:11AM 32.5920 132.8720 243° Southwest 339 390 41,000  Level FlightAware
01:11AM 32.5580 132.7920 243° Southwest 335 386 41,000  Level FlightAware
01:12AM 32.5320 132.7320 243° Southwest 336 387 41,000  Level FlightAware
01:13AM 32.5010 132.6600 243° Southwest 343 395 41,000  Level FlightAware
01:13AM 32.4730 132.5960 243° Southwest 339 390 41,000  Level FlightAware
01:14AM 32.4420 132.5240 243° Southwest 343 395 41,000  Level FlightAware
01:15AM 32.3890 132.4030 243° Southwest 327 376 41,000  Level FlightAware
01:16AM 32.3650 132.3470 243° Southwest 328 377 41,000  Level FlightAware
01:17AM 32.3300 132.2690 242° Southwest 41,000  Level FlightAware
01:17AM 32.2980 132.1960 243° Southwest 329 379 41,000  Level FlightAware
01:18AM 32.2720 132.1350 243° Southwest 329 379 41,000  Level FlightAware
01:19AM 32.2420 132.0670 242° Southwest 332 382 41,000  Level FlightAware
01:20AM 32.2100 131.9950 242° Southwest 341 392 41,000  Level FlightAware
01:20AM 32.1750 131.9310 237° Southwest 350 403 41,000  Level FlightAware
01:21AM 32.1400 131.8680 237° Southwest 353 406 41,000  Level FlightAware
01:22AM 32.1000 131.7930 238° Southwest 355 409 41,000  Level FlightAware
01:22AM 32.0650 131.7290 237° Southwest 356 410 41,000  Level FlightAware
01:24AM 31.9920 131.5920 238° Southwest 360 414 41,000  Level FlightAware
01:25AM 31.9170 131.4540 237° Southwest 360 414 41,000  Level FlightAware
01:26AM 31.8540 131.3380 237° Southwest 354 407 41,000  Level FlightAware
01:27AM 31.7920 131.2240 237° Southwest 350 403 41,000  Level FlightAware
01:29AM 31.7300 131.1100 237° Southwest 357 411 41,000  Level FlightAware
01:30AM 31.6650 130.9900 238° Southwest 352 405 41,000  Level FlightAware
01:31AM 31.6060 130.8830 237° Southwest 354 407 41,000  Level FlightAware
01:32AM 31.5720 130.8220 237° Southwest 358 412 41,000  Level FlightAware
01:32AM 31.5320 130.7490 237° Southwest 356 410 41,000  Level FlightAware
01:33AM 31.4960 130.6840 237° Southwest 345 397 41,000  Level FlightAware
01:34AM 31.4580 130.6150 237° Southwest 345 397 41,000  Level FlightAware
01:34AM 31.4230 130.5510 237° Southwest 344 396 41,000  Level FlightAware
01:35AM 31.3830 130.4800 237° Southwest 345 397 41,000  Level FlightAware
01:36AM 31.3490 130.4190 237° Southwest 346 398 41,000  Level FlightAware
01:37AM 31.3090 130.3460 237° Southwest 348 400 41,000  Level FlightAware
01:37AM 31.2740 130.2840 237° Southwest 348 400 41,000  Level FlightAware
01:38AM 31.2330 130.2110 237° Southwest 349 402 41,000  Level FlightAware
01:39AM 31.1950 130.1430 237° Southwest 350 403 41,000  Level FlightAware
01:39AM 31.1590 130.0790 237° Southwest 349 402 41,000  Level FlightAware
01:41AM 31.1040 129.9800 237° Southwest 349 402 41,000  Level FlightAware
01:41AM 31.0610 129.9040 237° Southwest 349 402 41,000  Level FlightAware
01:42AM 31.0220 129.8350 237° Southwest 348 400 41,000  Level FlightAware
01:43AM 30.9700 129.7430 237° Southwest 347 399 41,000  Level FlightAware
01:44AM 30.9360 129.6830 237° Southwest 349 402 41,000  Level FlightAware
01:44AM 30.8990 129.6170 237° Southwest 349 402 41,000  Level FlightAware
01:45AM 30.8690 129.5630 237° Southwest 349 402 41,000  Level FlightAware
01:46AM 30.8320 129.4960 237° Southwest 349 402 41,000  Level FlightAware
01:47AM 30.8020 129.4430 237° Southwest 349 402 41,000  Level FlightAware
01:47AM 30.7720 129.3890 237° Southwest 349 402 41,000  Level FlightAware
01:48AM 30.7420 129.3350 237° Southwest 349 402 41,000  Level FlightAware
01:49AM 30.7120 129.2820 237° Southwest 349 402 41,000  Level FlightAware
01:49AM 30.6820 129.2280 237° Southwest 349 402 41,000  Level FlightAware
01:50AM 30.6450 129.1610 237° Southwest 349 402 41,000  Level FlightAware
01:51AM 30.6150 129.1080 237° Southwest 349 402 41,000  Level FlightAware
01:51AM 30.5850 129.0540 237° Southwest 349 402 41,000  Level FlightAware
01:52AM 30.5550 129.0010 237° Southwest 349 402 41,000  Level FlightAware
01:53AM 30.5250 128.9470 237° Southwest 349 402 41,000  Level FlightAware
01:54AM 30.4880 128.8810 237° Southwest 349 402 41,000 -240 Level FlightAware
01:56AM 30.3789 128.7199 232° Southwest  Level Estimated
01:57AM 30.3208 128.6345 232° Southwest  Level Estimated
01:58AM 30.2627 128.5492 232° Southwest  Level Estimated
01:59AM 30.2046 128.4641 232° Southwest  Level Estimated
02:00AM 30.1464 128.3790 232° Southwest  Level Estimated
02:01AM 30.0881 128.2940 232° Southwest  Level Estimated
02:02AM 30.0298 128.2091 232° Southwest  Level Estimated
02:03AM 29.9714 128.1243 232° Southwest  Level Estimated
02:04AM 29.9130 128.0397 231° Southwest  Level Estimated
02:05AM 29.8545 127.9551 231° Southwest  Level Estimated
02:06AM 29.7960 127.8706 231° Southwest  Level Estimated
02:07AM 29.7374 127.7862 231° Southwest  Level Estimated
02:08AM 29.6788 127.7019 231° Southwest  Level Estimated
02:09AM 29.6201 127.6177 231° Southwest  Level Estimated
02:10AM 29.5614 127.5336 231° Southwest  Level Estimated
02:11AM 29.5026 127.4496 231° Southwest  Level Estimated
02:12AM 29.4437 127.3657 231° Southwest  Level Estimated
02:13AM 29.3848 127.2819 231° Southwest  Level Estimated
02:14AM 29.3259 127.1982 231° Southwest  Level Estimated
02:15AM 29.2669 127.1146 231° Southwest  Level Estimated
02:16AM 29.2078 127.0311 231° Southwest  Level Estimated
02:17AM 29.1487 126.9477 231° Southwest  Level Estimated
02:18AM 29.0896 126.8644 231° Southwest  Level Estimated
02:19AM 29.0304 126.7812 231° Southwest  Level Estimated
02:20AM 28.9711 126.6980 231° Southwest  Level Estimated
02:21AM 28.9118 126.6150 231° Southwest  Level Estimated
02:22AM 28.8524 126.5321 231° Southwest  Level Estimated
02:23AM 28.7930 126.4492 231° Southwest  Level Estimated
02:24AM 28.7336 126.3665 231° Southwest  Level Estimated
02:25AM 28.6740 126.2838 231° Southwest  Level Estimated
02:26AM 28.6145 126.2013 231° Southwest  Level Estimated
02:27AM 28.5549 126.1188 231° Southwest  Level Estimated
02:28AM 28.4952 126.0364 231° Southwest  Level Estimated
02:29AM 28.4355 125.9541 230° Southwest  Level Estimated
02:30AM 28.3757 125.8720 230° Southwest  Level Estimated
02:31AM 28.3159 125.7899 230° Southwest  Level Estimated
02:32AM 28.2561 125.7079 230° Southwest  Level Estimated
02:33AM 28.1962 125.6260 230° Southwest  Level Estimated
02:34AM 28.1362 125.5442 230° Southwest  Level Estimated
02:35AM 28.0762 125.4624 230° Southwest  Level Estimated
02:36AM 28.0161 125.3808 230° Southwest  Level Estimated
02:37AM 27.9560 125.2993 230° Southwest  Level Estimated
02:38AM 27.8959 125.2178 230° Southwest  Level Estimated
02:39AM 27.8357 125.1365 230° Southwest  Level Estimated
02:40AM 27.7754 125.0552 230° Southwest  Level Estimated
02:41AM 27.7151 124.9740 230° Southwest  Level Estimated
02:42AM 27.6548 124.8929 230° Southwest  Level Estimated
02:43AM 27.5944 124.8119 230° Southwest  Level Estimated
02:44AM 27.5340 124.7310 230° Southwest  Level Estimated
02:45AM 27.4735 124.6502 230° Southwest  Level Estimated
02:46AM 27.4130 124.5695 230° Southwest  Level Estimated
02:47AM 27.3524 124.4888 230° Southwest  Level Estimated
02:48AM 27.2918 124.4082 230° Southwest  Level Estimated
02:49AM 27.2311 124.3278 230° Southwest  Level Estimated
02:50AM 27.1704 124.2474 230° Southwest  Level Estimated
02:50AM 26.3540 123.0290 230° Southwest 416 479 29,700  Level FlightAware
02:51AM 27.1096 124.1671 230° Southwest  Level Estimated
02:51AM 26.3010 122.9600 229° Southwest 398 458 28,400  Level FlightAware
02:51AM 26.2550 122.8980 230° Southwest 386 444 27,200 -1,740 Descending FlightAware
02:52AM 26.2100 122.8390 230° Southwest 376 433 26,100 -1,860 Descending FlightAware
02:53AM 26.1600 122.7730 230° Southwest 367 422 24,600 -1,920 Descending FlightAware
02:54AM 26.1170 122.7160 230° Southwest 361 415 23,400 -1,860 Descending FlightAware
02:54AM 26.0700 122.6540 230° Southwest 354 407 22,000 -1,860 Descending FlightAware
02:55AM 26.0260 122.5970 229° Southwest 344 396 20,800 -1,800 Descending FlightAware
02:56AM 25.9790 122.5350 230° Southwest 335 386 19,500 -1,680 Descending FlightAware
02:56AM 25.9420 122.4860 230° Southwest 331 381 18,500 -1,680 Descending FlightAware
02:57AM 25.8970 122.4300 228° Southwest 327 376 17,200 -1,980 Descending FlightAware
02:58AM 25.8600 122.3830 229° Southwest 330 380 15,900 -1,200 Descending FlightAware
02:59AM 25.7950 122.3020 228° Southwest 325 374 15,100 -420 Descending FlightAware
03:00AM 25.7560 122.2550 227° Southwest 325 374 15,100  Level FlightAware
03:00AM 25.7220 122.2130 228° Southwest 325 374 15,100  Level FlightAware
03:01AM 25.6880 122.1700 229° Southwest 325 374 15,100  Level FlightAware
03:02AM 25.6450 122.1180 227° Southwest 325 374 15,100 -2,100 Level FlightAware
03:03AM 25.5480 121.9920 230° Southwest 270 311 10,100 -2,760 Descending FlightAware
03:04AM 25.5320 121.9800 214° Southwest 278 320 10,100 -420 Level FlightAware
03:04AM 25.5140 121.9750 194° South 282 325 9,900 -1,080 Descending FlightAware
03:04AM 25.4810 121.9660 194° South 279 321 9,400 -1,140 Descending FlightAware
03:05AM 25.4440 121.9560 194° South 273 314 8,900 -1,020 Descending FlightAware
03:05AM 25.4070 121.9460 194° South 268 308 8,400 -1,140 Descending FlightAware
03:06AM 25.3780 121.9370 196° South 266 306 7,900 -1,140 Descending FlightAware
03:06AM 25.3430 121.9280 193° South 269 310 7,400 -1,140 Descending FlightAware
03:07AM 25.3060 121.9180 194° South 267 307 6,800 -1,380 Descending FlightAware
03:07AM 25.2910 121.9140 194° South 267 307 6,500 -1,200 Descending FlightAware
03:07AM 25.2580 121.9050 194° South 268 308 6,000 -1,200 Descending FlightAware
03:08AM 25.2380 121.8990 195° South 268 308 5,600 -1,380 Descending FlightAware
03:08AM 25.2090 121.8910 194° South 268 308 5,100 -1,200 Descending FlightAware
03:08AM 25.1900 121.8860 193° South 267 307 4,800 -720 Descending FlightAware
03:09AM 25.1550 121.8760 195° South 254 292 4,600 -360 Descending FlightAware
03:09AM 25.1270 121.8680 195° South 232 267 4,500  Descending FlightAware
03:10AM 25.1000 121.8570 200° South 193 222 4,600 -120 Climbing FlightAware
03:10AM 25.0930 121.8400 246° West 183 211 4,400 -300 Descending FlightAware
03:10AM 25.0870 121.8200 252° West 183 211 4,400 -720 Level FlightAware
03:12AM 25.0830 121.7650 265° West 157 181 3,400 -840 Descending FlightAware
03:12AM 25.0810 121.7400 265° West 159 183 3,100 -600 Descending FlightAware
03:12AM 25.0790 121.7210 263° West 147 169 2,900 -600 Descending FlightAware
03:13AM 25.0780 121.7000 267° West 132 152 2,600 -540 Descending FlightAware
03:13AM 25.0520 121.6860 206° Southwest 132 152 2,500 -780 Descending FlightAware
03:14AM 25.0760 121.6730 334° Northwest 134 154 2,100 -900 Descending FlightAware
03:14AM 25.0750 121.6630 264° West 135 155 1,900 -960 Descending FlightAware
03:14AM 25.0740 121.6420 267° West 135 155 1,400 -1,020 Descending FlightAware
03:15AM 25.0720 121.6270 262° West 131 151 1,000 -480 Descending FlightAware
03:15AM 25.0680 121.6070 258° West 133 153 1,000  Level FlightAware
03:18AM 25.0694 121.5517 272° West  Level Estimated
03:19AM 25.0694 121.5517 326° Northwest  Level Estimated
03:20AM 25.0694 121.5517 326° Northwest  Level Estimated
03:21AM 25.0694 121.5517 326° Northwest  Level Estimated
03:22AM 25.0694 121.5517 326° Northwest  Level Estimated
03:23AM 25.0694 121.5517 326° Northwest  Level Estimated
03:24AM 25.0694 121.5517 326° Northwest  Level Estimated